createdAt,value
2023-03-23T15:58:54.179Z,14.40
2023-03-23T16:00:18.278Z,14.40
2023-03-23T16:01:42.664Z,14.40
2023-03-23T16:03:08.077Z,14.30
2023-03-23T16:04:30.635Z,14.30
2023-03-23T16:05:52.980Z,14.20
2023-03-23T16:07:15.288Z,14.20
2023-03-23T16:08:40.870Z,14.20
2023-03-23T16:10:03.672Z,14.20
2023-03-23T16:11:28.482Z,14.30
2023-03-23T16:12:50.956Z,14.50
2023-03-23T16:14:13.186Z,14.60
2023-03-23T16:15:35.852Z,14.80
2023-03-23T16:16:58.012Z,14.80
2023-03-23T16:18:22.357Z,14.80
2023-03-23T16:19:44.479Z,14.80
2023-03-23T16:21:07.117Z,14.90
2023-03-23T16:22:29.169Z,14.80
2023-03-23T16:23:51.379Z,14.70
2023-03-23T16:25:14.337Z,14.60
2023-03-23T16:26:36.951Z,14.40
2023-03-23T16:27:58.958Z,14.30
2023-03-23T16:29:39.928Z,14.20
2023-03-23T16:31:03.196Z,14.20
2023-03-23T16:32:25.464Z,14.00
2023-03-23T16:33:47.538Z,13.90
2023-03-23T16:35:10.420Z,13.80
2023-03-23T16:36:33.105Z,13.70
2023-03-23T16:38:08.545Z,13.60
2023-03-23T16:39:31.208Z,13.60
2023-03-23T16:40:53.651Z,13.50
2023-03-23T16:42:15.737Z,13.40
2023-03-23T16:43:37.939Z,13.40
2023-03-23T16:45:00.132Z,13.30
2023-03-23T16:46:22.408Z,13.20
2023-03-23T16:47:44.883Z,13.10
2023-03-23T16:49:07.161Z,13.10
2023-03-23T16:50:30.051Z,13.00
2023-03-23T16:51:52.204Z,13.00
2023-03-23T16:53:14.344Z,12.90
2023-03-23T16:54:36.534Z,12.90
2023-03-23T16:55:58.906Z,12.90
2023-03-23T16:57:21.055Z,12.80
2023-03-23T16:58:43.150Z,12.80
2023-03-23T17:00:11.952Z,12.80
2023-03-23T17:01:34.174Z,12.80
2023-03-23T17:02:57.466Z,12.70
2023-03-23T17:04:19.748Z,12.70
2023-03-23T17:05:42.872Z,12.70
2023-03-23T17:07:05.249Z,12.70
2023-03-23T17:08:27.539Z,12.70
2023-03-23T17:09:49.652Z,12.70
2023-03-23T17:11:11.772Z,12.70
2023-03-23T17:12:34.588Z,12.70
2023-03-23T17:13:56.575Z,12.70
2023-03-23T17:15:18.797Z,12.70
2023-03-23T17:16:40.980Z,12.70
2023-03-23T17:18:03.288Z,12.70
2023-03-23T17:19:26.206Z,12.70
2023-03-23T17:20:48.457Z,12.60
2023-03-23T17:22:10.560Z,12.60
2023-03-23T17:23:32.850Z,12.60
2023-03-23T17:24:55.239Z,12.60
2023-03-23T17:26:17.335Z,12.50
2023-03-23T17:27:39.468Z,12.50
2023-03-23T17:29:01.944Z,12.50
2023-03-23T17:30:24.151Z,12.40
2023-03-23T17:31:46.454Z,12.40
2023-03-23T17:33:08.804Z,12.30
2023-03-23T17:34:31.185Z,12.30
2023-03-23T17:35:53.926Z,12.30
2023-03-23T17:37:16.658Z,12.30
2023-03-23T17:38:38.837Z,12.30
2023-03-23T17:40:00.988Z,12.30
2023-03-23T17:41:23.144Z,12.30
2023-03-23T17:42:45.360Z,12.30
2023-03-23T17:44:07.724Z,12.30
2023-03-23T17:45:30.365Z,12.20
2023-03-23T17:46:53.015Z,12.20
2023-03-23T17:48:15.604Z,12.20
2023-03-23T17:49:37.793Z,12.20
2023-03-23T17:51:02.233Z,12.10
2023-03-23T17:52:24.862Z,12.10
2023-03-23T17:53:47.029Z,12.00
2023-03-23T17:55:09.612Z,12.00
2023-03-23T17:56:31.844Z,11.90
2023-03-23T17:57:53.988Z,11.90
2023-03-23T17:59:16.119Z,11.80
2023-03-23T18:00:38.670Z,11.70
2023-03-23T18:02:00.952Z,11.70
2023-03-23T18:03:24.464Z,11.70
2023-03-23T18:04:47.070Z,11.60
2023-03-23T18:06:09.864Z,11.50
2023-03-23T18:07:31.895Z,11.50
2023-03-23T18:08:54.138Z,11.40
2023-03-23T18:10:16.392Z,11.40
2023-03-23T18:11:38.582Z,11.30
2023-03-23T18:13:00.815Z,11.20
2023-03-23T18:14:23.081Z,11.20
2023-03-23T18:15:46.755Z,11.10
2023-03-23T18:17:09.329Z,11.10
2023-03-23T18:18:32.262Z,11.00
2023-03-23T18:19:55.316Z,11.00
2023-03-23T18:21:17.666Z,10.90
2023-03-23T18:22:40.198Z,10.80
2023-03-23T18:24:02.541Z,10.80
2023-03-23T18:25:24.998Z,10.80
2023-03-23T18:26:47.205Z,10.70
2023-03-23T18:28:09.238Z,10.70
2023-03-23T18:29:31.312Z,10.60
2023-03-23T18:30:53.473Z,10.60
2023-03-23T18:32:17.015Z,10.60
2023-03-23T18:33:42.316Z,10.50
2023-03-23T18:35:06.628Z,10.50
2023-03-23T18:36:28.807Z,10.50
2023-03-23T18:37:51.047Z,10.40
2023-03-23T18:40:29.902Z,10.30
2023-03-23T18:41:52.149Z,10.30
2023-03-23T18:43:14.297Z,10.30
2023-03-23T18:44:36.509Z,10.30
2023-03-23T18:45:59.792Z,10.20
2023-03-23T18:47:22.204Z,10.20
2023-03-23T18:48:44.272Z,10.20
2023-03-23T18:50:11.011Z,10.20
2023-03-23T18:51:33.040Z,10.10
2023-03-23T18:52:55.192Z,10.10
2023-03-23T18:54:17.649Z,10.10
2023-03-23T18:55:39.738Z,10.00
2023-03-23T18:57:02.332Z,10.00
2023-03-23T18:58:24.457Z,10.00
2023-03-23T18:59:46.628Z,10.00
2023-03-23T19:01:12.081Z,10.00
2023-03-23T19:02:35.365Z,10.00
2023-03-23T19:03:57.543Z,9.90
2023-03-23T19:05:19.726Z,9.90
2023-03-23T19:06:41.999Z,9.80
2023-03-23T19:08:05.084Z,9.80
2023-03-23T19:09:29.209Z,9.80
2023-03-23T19:10:58.396Z,9.80
2023-03-23T19:12:21.125Z,9.80
2023-03-23T19:13:53.964Z,9.70
2023-03-23T19:15:24.474Z,9.70
2023-03-23T19:16:46.748Z,9.70
2023-03-23T19:18:09.137Z,9.70
2023-03-23T19:19:31.441Z,9.60
2023-03-23T19:21:13.677Z,9.60
2023-03-23T19:22:37.330Z,9.60
2023-03-23T19:24:00.548Z,9.60
2023-03-23T19:25:23.303Z,9.60
2023-03-23T19:26:46.784Z,9.50
2023-03-23T19:30:57.990Z,9.50
2023-03-23T19:32:20.816Z,9.50
2023-03-23T19:33:43.637Z,9.50
2023-03-23T19:35:06.241Z,9.50
2023-03-23T19:36:28.395Z,9.40
2023-03-23T19:37:50.636Z,9.40
2023-03-23T19:39:12.968Z,9.40
2023-03-23T19:40:42.043Z,9.40
2023-03-23T19:42:04.904Z,9.40
2023-03-23T19:43:27.719Z,9.40
2023-03-23T19:44:50.429Z,9.40
2023-03-23T19:46:14.263Z,9.30
2023-03-23T19:47:36.607Z,9.30
2023-03-23T19:48:59.227Z,9.30
2023-03-23T19:50:21.355Z,9.20
2023-03-23T19:51:43.419Z,9.20
2023-03-23T19:53:05.923Z,9.20
2023-03-23T19:54:28.029Z,9.20
2023-03-23T19:55:51.109Z,9.20
2023-03-23T19:57:13.969Z,9.20
2023-03-23T19:58:36.106Z,9.20
2023-03-23T19:59:59.203Z,9.10
2023-03-23T20:01:21.693Z,9.20
2023-03-23T20:02:43.934Z,9.20
2023-03-23T20:04:06.986Z,9.20
2023-03-23T20:05:29.520Z,9.20
2023-03-23T20:06:52.380Z,9.20
2023-03-23T20:08:14.877Z,9.20
2023-03-23T20:09:38.235Z,9.20
2023-03-23T20:11:05.256Z,9.20
2023-03-23T20:12:27.327Z,9.20
2023-03-23T20:13:50.604Z,9.20
2023-03-23T20:15:12.737Z,9.20
2023-03-23T20:16:34.891Z,9.20
2023-03-23T20:17:58.108Z,9.20
2023-03-23T20:19:21.334Z,9.30
2023-03-23T20:20:43.741Z,9.30
2023-03-23T20:22:06.176Z,9.30
2023-03-23T20:23:28.595Z,9.30
2023-03-23T20:24:51.224Z,9.30
2023-03-23T20:26:17.163Z,9.30
2023-03-23T20:27:39.440Z,9.40
2023-03-23T20:29:02.267Z,9.40
2023-03-23T20:30:24.414Z,9.40
2023-03-23T20:31:46.701Z,9.40
2023-03-23T20:33:09.372Z,9.40
2023-03-23T20:34:31.729Z,9.40
2023-03-23T20:35:53.928Z,9.40
2023-03-23T20:37:20.417Z,9.40
2023-03-23T20:38:42.992Z,9.40
2023-03-23T20:40:14.692Z,9.40
2023-03-23T20:41:38.430Z,9.30
2023-03-23T20:43:01.291Z,9.40
2023-03-23T20:44:23.384Z,9.30
2023-03-23T20:45:45.862Z,9.40
2023-03-23T20:47:09.373Z,9.30
2023-03-23T20:48:34.760Z,9.30
2023-03-23T20:49:57.166Z,9.30
2023-03-23T20:51:19.287Z,9.30
2023-03-23T20:52:41.698Z,9.30
2023-03-23T20:54:04.837Z,9.40
2023-03-23T20:55:27.584Z,9.30
2023-03-23T20:56:50.206Z,9.30
2023-03-23T20:58:12.528Z,9.30
2023-03-23T20:59:35.435Z,9.30
2023-03-23T21:01:01.366Z,9.30
2023-03-23T21:02:26.033Z,9.30
2023-03-23T21:03:52.087Z,9.30
2023-03-23T21:05:14.717Z,9.30
2023-03-23T21:06:37.205Z,9.30
2023-03-23T21:07:59.347Z,9.30
2023-03-23T21:09:21.638Z,9.30
2023-03-23T21:10:45.149Z,9.30
2023-03-23T21:12:09.411Z,9.30
2023-03-23T21:13:32.297Z,9.30
2023-03-23T21:14:54.403Z,9.30
2023-03-23T21:16:18.822Z,9.20
2023-03-23T21:17:40.976Z,9.20
2023-03-23T21:19:05.046Z,9.20
2023-03-23T21:20:27.280Z,9.20
2023-03-23T21:21:55.895Z,9.20
2023-03-23T21:23:19.501Z,9.20
2023-03-23T21:24:41.809Z,9.20
2023-03-23T21:26:06.302Z,9.20
2023-03-23T21:27:28.664Z,9.20
2023-03-23T21:28:55.040Z,9.20
2023-03-23T21:30:17.546Z,9.20
2023-03-23T21:31:39.770Z,9.20
2023-03-23T21:33:01.949Z,9.20
2023-03-23T21:34:24.548Z,9.20
2023-03-23T21:35:46.950Z,9.20
2023-03-23T21:37:09.558Z,9.20
2023-03-23T21:38:32.218Z,9.20
2023-03-23T21:39:54.403Z,9.20
2023-03-23T21:41:16.464Z,9.20
2023-03-23T21:42:41.873Z,9.30
2023-03-23T21:44:05.447Z,9.30
2023-03-23T21:45:28.891Z,9.30
2023-03-23T21:46:52.345Z,9.30
2023-03-23T21:48:15.365Z,9.30
2023-03-23T21:49:40.375Z,9.20
2023-03-23T21:51:08.716Z,9.20
2023-03-23T21:52:31.091Z,9.20
2023-03-23T21:53:54.683Z,9.20
2023-03-23T21:55:17.119Z,9.20
2023-03-23T21:56:39.687Z,9.20
2023-03-23T21:58:02.210Z,9.20
2023-03-23T21:59:28.194Z,9.10
2023-03-23T22:00:53.887Z,9.10
2023-03-23T22:02:16.673Z,9.10
2023-03-23T22:03:40.374Z,9.10
2023-03-23T22:05:02.488Z,9.10
2023-03-23T22:06:28.537Z,9.10
2023-03-23T22:07:51.263Z,9.00
2023-03-23T22:09:13.802Z,9.00
2023-03-23T22:10:40.463Z,9.00
2023-03-23T22:12:02.703Z,8.90
2023-03-23T22:13:24.853Z,8.90
2023-03-23T22:14:46.974Z,8.90
2023-03-23T22:16:13.403Z,8.90
2023-03-23T22:17:39.115Z,8.90
2023-03-23T22:19:02.166Z,8.90
2023-03-23T22:20:25.466Z,8.80
2023-03-23T22:21:47.916Z,8.80
2023-03-23T22:23:09.973Z,8.80
2023-03-23T22:24:32.598Z,8.70
2023-03-23T22:25:56.632Z,8.70
2023-03-23T22:27:19.296Z,8.70
2023-03-23T22:28:42.890Z,8.70
2023-03-23T22:30:05.920Z,8.70
2023-03-23T22:31:32.542Z,8.70
2023-03-23T22:32:54.718Z,8.70
2023-03-23T22:34:17.138Z,8.70
2023-03-23T22:35:39.277Z,8.80
2023-03-23T22:37:01.449Z,8.80
2023-03-23T22:38:23.856Z,8.80
2023-03-23T22:39:46.000Z,8.80
2023-03-23T22:41:09.321Z,8.80
2023-03-23T22:42:31.435Z,8.80
2023-03-23T22:43:54.106Z,8.80
2023-03-23T22:45:16.376Z,8.80
2023-03-23T22:46:39.157Z,8.80
2023-03-23T22:48:01.530Z,8.80
2023-03-23T22:49:23.748Z,8.80
2023-03-23T22:50:47.293Z,8.90
2023-03-23T22:52:09.938Z,8.80
2023-03-23T22:53:32.002Z,8.90
2023-03-23T22:54:54.196Z,8.90
2023-03-23T22:56:16.943Z,8.90
2023-03-23T22:57:39.017Z,8.90
2023-03-23T22:59:01.943Z,8.90
2023-03-23T23:00:24.208Z,9.00
2023-03-23T23:01:46.387Z,9.00
2023-03-23T23:03:08.807Z,9.00
2023-03-23T23:04:31.110Z,9.00
2023-03-23T23:05:55.064Z,9.10
2023-03-23T23:07:17.843Z,9.10
2023-03-23T23:08:41.241Z,9.20
2023-03-23T23:10:04.561Z,9.20
2023-03-23T23:11:26.919Z,9.30
2023-03-23T23:12:49.012Z,9.30
2023-03-23T23:14:11.494Z,9.30
2023-03-23T23:15:34.372Z,9.30
2023-03-23T23:16:56.505Z,9.30
2023-03-23T23:18:20.205Z,9.30
2023-03-23T23:19:42.374Z,9.30
2023-03-23T23:21:09.587Z,9.40
2023-03-23T23:22:31.866Z,9.30
2023-03-23T23:23:54.235Z,9.40
2023-03-23T23:25:16.456Z,9.40
2023-03-23T23:26:38.528Z,9.40
2023-03-23T23:28:05.621Z,9.40
2023-03-23T23:29:27.741Z,9.40
2023-03-23T23:30:51.393Z,9.40
2023-03-23T23:32:13.663Z,9.40
2023-03-23T23:33:35.716Z,9.40
2023-03-23T23:34:57.890Z,9.30
2023-03-23T23:36:21.222Z,9.30
2023-03-23T23:37:43.335Z,9.30
2023-03-23T23:39:06.634Z,9.30
2023-03-23T23:40:28.768Z,9.20
2023-03-23T23:41:50.874Z,9.20
2023-03-23T23:43:15.241Z,9.20
2023-03-23T23:44:38.212Z,9.20
2023-03-23T23:46:00.373Z,9.10
2023-03-23T23:47:22.608Z,9.10
2023-03-23T23:48:44.924Z,9.10
2023-03-23T23:50:09.446Z,9.10
2023-03-23T23:51:33.517Z,9.10
2023-03-23T23:52:56.178Z,9.00
2023-03-23T23:54:22.636Z,9.10
2023-03-23T23:55:44.823Z,9.10
2023-03-23T23:57:07.064Z,9.10
2023-03-23T23:58:29.912Z,9.10
2023-03-23T23:59:52.146Z,9.10
